Line Lexington, Pennsylvania
Current Conditions -  °F | °C
As of 2:54 AM on Tuesday 27 Jan 2015 (Local Time) from KDYL Reporting Station
Light Snow Light Snow  
Wind Chill: 13°   Ceiling: 2200
Heat Index: 22°   Visibility: 2.5mi
Dew Point: 19°   Wind: 8mph
Humidity: 89%   Direction: 360°N
Pressure: 29.69"   Gusts: NA
Location:  40.29°N, 75.26°W
Report Text: KDYL 270754Z AUTO 36007KT 2 1/2SM -SN BR BKN022 OVC035 M06/M07 A2969 RMK AO2 SLP065 P0000 T10561072
Loading
Personal Weather Stations






























Interactive Weather Map New forecast layout! Learn more

10-Day Weather Forecast

Advertisements
Track Severe Weather on mobile